createdAt,value
2018-12-16T00:00:03.435Z,36.33
2018-12-16T00:02:31.247Z,33.27
2018-12-16T00:04:59.173Z,32.97
2018-12-16T00:07:27.030Z,29.83
2018-12-16T00:09:54.907Z,34.10
2018-12-16T00:12:22.846Z,33.83
2018-12-16T00:14:50.690Z,33.23
2018-12-16T00:17:18.525Z,35.03
2018-12-16T00:19:46.415Z,33.07
2018-12-16T00:22:14.210Z,31.20
2018-12-16T00:24:42.062Z,35.60
2018-12-16T00:27:10.792Z,33.90
2018-12-16T00:29:38.915Z,32.33
2018-12-16T00:32:06.897Z,38.20
2018-12-16T00:34:34.725Z,31.30
2018-12-16T00:37:04.224Z,34.73
2018-12-16T00:39:32.045Z,32.50
2018-12-16T00:41:59.902Z,33.23
2018-12-16T00:44:27.779Z,37.87
2018-12-16T00:46:55.618Z,38.23
2018-12-16T00:49:23.428Z,39.87
2018-12-16T00:51:51.388Z,46.17
2018-12-16T00:54:19.209Z,39.67
2018-12-16T00:56:47.122Z,38.40
2018-12-16T00:59:14.958Z,33.77
2018-12-16T01:01:42.812Z,35.00
2018-12-16T01:04:10.675Z,36.67
2018-12-16T01:06:38.579Z,31.93
2018-12-16T01:09:06.813Z,30.07
2018-12-16T01:11:34.697Z,32.80
2018-12-16T01:14:02.637Z,31.43
2018-12-16T01:16:30.547Z,31.93
2018-12-16T01:18:58.357Z,30.80
2018-12-16T01:21:26.292Z,30.63
2018-12-16T01:23:54.206Z,31.97
2018-12-16T01:26:22.107Z,31.20
2018-12-16T01:28:49.921Z,30.00
2018-12-16T01:31:17.887Z,30.17
2018-12-16T01:33:45.702Z,31.77
2018-12-16T01:36:13.588Z,29.47
2018-12-16T01:38:42.016Z,33.30
2018-12-16T01:41:09.833Z,30.97
2018-12-16T01:43:37.686Z,29.77
2018-12-16T01:46:05.513Z,30.53
2018-12-16T01:48:33.420Z,31.57
2018-12-16T01:51:01.223Z,33.17
2018-12-16T01:53:29.133Z,28.47
2018-12-16T01:55:56.983Z,30.70
2018-12-16T01:58:24.869Z,33.00
2018-12-16T02:00:52.704Z,31.10
2018-12-16T02:03:20.612Z,30.00
2018-12-16T02:05:48.443Z,31.30
2018-12-16T02:08:16.317Z,29.47
2018-12-16T02:10:44.276Z,29.43
2018-12-16T02:13:12.202Z,30.37
2018-12-16T02:15:40.081Z,28.77
2018-12-16T02:18:08.045Z,29.53
2018-12-16T02:20:35.889Z,29.80
2018-12-16T02:23:03.769Z,26.90
2018-12-16T02:25:31.702Z,30.27
2018-12-16T02:27:59.614Z,28.67
2018-12-16T02:30:28.681Z,24.67
2018-12-16T02:32:56.557Z,25.53
2018-12-16T02:35:24.377Z,27.13
2018-12-16T02:37:52.202Z,26.77
2018-12-16T02:40:20.128Z,26.63
2018-12-16T02:42:47.977Z,27.53
2018-12-16T02:45:15.993Z,27.87
2018-12-16T02:47:46.773Z,31.63
2018-12-16T02:50:14.814Z,26.37
2018-12-16T02:52:42.693Z,27.93
2018-12-16T02:55:10.547Z,27.30
2018-12-16T02:57:38.392Z,26.47
2018-12-16T03:00:06.975Z,24.97
2018-12-16T03:02:34.984Z,25.27
2018-12-16T03:05:03.152Z,24.57
2018-12-16T03:07:31.289Z,22.47
2018-12-16T03:09:59.171Z,26.70
2018-12-16T03:12:27.182Z,23.90
2018-12-16T03:14:56.027Z,24.57
2018-12-16T03:17:29.367Z,23.17
2018-12-16T03:30:02.517Z,23.97
2018-12-16T03:36:15.194Z,21.30
2018-12-16T03:38:43.023Z,23.33
2018-12-16T03:41:50.671Z,24.83
2018-12-16T03:44:18.517Z,25.00
2018-12-16T03:47:18.745Z,24.17
2018-12-16T03:49:46.561Z,25.10
2018-12-16T03:56:12.670Z,25.00
2018-12-16T03:58:46.189Z,25.43
2018-12-16T04:08:06.625Z,24.17
2018-12-16T04:10:34.452Z,23.07
2018-12-16T04:13:23.216Z,25.23
2018-12-16T04:15:51.102Z,27.67
2018-12-16T04:18:23.867Z,25.93
2018-12-16T04:20:51.665Z,26.60
2018-12-16T04:23:52.542Z,32.70
2018-12-16T04:26:20.383Z,29.43
2018-12-16T04:29:20.664Z,29.47
2018-12-16T04:31:48.541Z,30.73
2018-12-16T04:34:16.633Z,29.90
2018-12-16T04:36:44.499Z,30.33
2018-12-16T04:39:20.114Z,30.53
2018-12-16T04:44:14.853Z,31.73
2018-12-16T04:47:09.014Z,28.70
2018-12-16T04:49:36.839Z,35.73
2018-12-16T04:52:21.541Z,34.30
2018-12-16T04:54:49.358Z,33.47
2018-12-16T04:57:19.286Z,33.17
2018-12-16T04:59:47.139Z,35.63
2018-12-16T05:02:16.994Z,34.20
2018-12-16T05:04:44.798Z,34.57
2018-12-16T05:07:13.823Z,32.83
2018-12-16T05:09:41.631Z,34.13
2018-12-16T05:12:10.670Z,35.30
2018-12-16T05:14:38.488Z,34.77
2018-12-16T05:17:10.995Z,35.10
2018-12-16T05:19:38.849Z,39.37
2018-12-16T05:22:11.851Z,39.63
2018-12-16T05:24:39.708Z,41.43
2018-12-16T05:27:10.938Z,37.73
2018-12-16T05:29:38.738Z,43.33
2018-12-16T05:32:11.135Z,44.70
2018-12-16T05:34:38.980Z,45.23
2018-12-16T05:37:07.118Z,39.23
2018-12-16T05:39:35.146Z,41.53
2018-12-16T05:42:04.085Z,41.93
2018-12-16T05:44:31.905Z,41.30
2018-12-16T05:47:00.195Z,43.10
2018-12-16T05:49:28.020Z,44.63
2018-12-16T05:52:01.647Z,44.93
2018-12-16T05:54:29.454Z,41.57
2018-12-16T05:56:59.448Z,44.70
2018-12-16T05:59:27.273Z,41.60
2018-12-16T06:01:55.309Z,41.80
2018-12-16T06:07:30.902Z,39.57
2018-12-16T06:09:58.855Z,44.13
2018-12-16T06:12:26.659Z,43.87
2018-12-16T06:14:55.970Z,55.40
2018-12-16T06:17:23.825Z,43.17
2018-12-16T06:19:52.109Z,42.80
2018-12-16T06:22:19.908Z,42.17
2018-12-16T06:24:47.797Z,44.13
2018-12-16T06:27:15.884Z,43.03
2018-12-16T06:29:44.422Z,44.83
2018-12-16T06:32:12.216Z,47.97
2018-12-16T06:34:41.427Z,49.57
2018-12-16T06:37:10.622Z,48.90
2018-12-16T06:39:38.917Z,46.93
2018-12-16T06:42:06.982Z,48.37
2018-12-16T06:44:34.832Z,52.40
2018-12-16T06:47:04.333Z,44.90
2018-12-16T06:49:32.143Z,50.60
2018-12-16T06:52:01.209Z,47.50
2018-12-16T06:54:29.020Z,46.60
2018-12-16T06:56:59.116Z,45.40
2018-12-16T06:59:27.174Z,48.83
2018-12-16T07:02:00.969Z,47.07
2018-12-16T07:04:28.800Z,51.50
2018-12-16T07:06:57.946Z,50.20
2018-12-16T07:09:25.771Z,52.97
2018-12-16T07:12:11.671Z,51.83
2018-12-16T07:14:39.556Z,50.13
2018-12-16T07:17:07.408Z,49.90
2018-12-16T07:19:35.333Z,66.77
2018-12-16T07:22:09.247Z,53.33
2018-12-16T07:24:37.168Z,52.63
2018-12-16T07:27:14.197Z,53.73
2018-12-16T07:29:42.289Z,56.93
2018-12-16T07:32:10.562Z,49.60
2018-12-16T07:34:38.478Z,52.40
2018-12-16T07:37:06.818Z,47.90
2018-12-16T07:39:34.726Z,54.47
2018-12-16T07:42:02.811Z,48.37
2018-12-16T07:44:30.890Z,48.53
2018-12-16T07:46:58.838Z,47.90
2018-12-16T07:49:26.694Z,48.07
2018-12-16T07:51:54.756Z,48.07
2018-12-16T07:54:22.721Z,46.77
2018-12-16T07:56:50.663Z,53.70
2018-12-16T07:59:18.691Z,49.23
2018-12-16T08:01:46.624Z,46.67
2018-12-16T08:04:14.654Z,47.03
2018-12-16T08:06:42.501Z,44.70
2018-12-16T08:09:10.708Z,46.10
2018-12-16T08:11:38.653Z,45.60
2018-12-16T08:14:06.723Z,46.60
2018-12-16T08:16:34.553Z,48.63
2018-12-16T08:19:06.931Z,44.13
2018-12-16T08:21:33.598Z,46.83
2018-12-16T08:24:01.406Z,45.33
2018-12-16T08:26:29.265Z,42.60
2018-12-16T08:28:57.151Z,50.73
2018-12-16T08:31:24.995Z,42.33
2018-12-16T08:33:52.898Z,44.07
2018-12-16T08:36:20.687Z,41.73
2018-12-16T08:38:48.550Z,41.53
2018-12-16T08:41:16.365Z,40.77
2018-12-16T08:43:44.176Z,38.47
2018-12-16T08:46:11.982Z,45.37
2018-12-16T08:48:39.858Z,39.40
2018-12-16T08:51:17.141Z,42.83
2018-12-16T08:53:44.939Z,37.57
2018-12-16T08:56:12.745Z,37.00
2018-12-16T08:58:40.569Z,37.17
2018-12-16T09:01:08.377Z,37.67
2018-12-16T09:03:36.215Z,38.20
2018-12-16T09:06:04.117Z,35.63
2018-12-16T09:08:31.962Z,36.03
2018-12-16T09:11:00.885Z,38.07
2018-12-16T09:13:28.703Z,34.57
2018-12-16T09:15:56.518Z,34.67
2018-12-16T09:18:24.353Z,37.03
2018-12-16T09:20:53.670Z,35.07
2018-12-16T09:23:21.503Z,33.10
2018-12-16T09:25:49.543Z,35.10
2018-12-16T09:28:17.398Z,35.60
2018-12-16T09:30:45.215Z,38.47
2018-12-16T09:33:13.024Z,37.30
2018-12-16T09:35:40.888Z,34.33
2018-12-16T09:38:08.801Z,33.30
2018-12-16T09:40:36.676Z,33.33
2018-12-16T09:43:04.570Z,32.13
2018-12-16T09:45:32.410Z,35.20
2018-12-16T09:48:00.461Z,37.17
2018-12-16T09:50:28.437Z,34.03
2018-12-16T09:52:56.399Z,37.73
2018-12-16T09:55:24.370Z,36.33
2018-12-16T09:57:52.164Z,36.87
2018-12-16T10:00:20.060Z,35.50
2018-12-16T10:02:47.887Z,43.50
2018-12-16T10:05:15.763Z,36.47
2018-12-16T10:07:43.588Z,34.03
2018-12-16T10:10:11.428Z,33.17
2018-12-16T10:12:39.284Z,35.57
2018-12-16T10:15:07.213Z,31.70
2018-12-16T10:17:35.093Z,34.80
2018-12-16T10:20:03.176Z,32.17
2018-12-16T10:22:31.000Z,29.20
2018-12-16T10:24:58.966Z,32.13
2018-12-16T10:27:26.831Z,29.87
2018-12-16T10:29:54.684Z,33.00
2018-12-16T10:32:22.532Z,35.73
2018-12-16T10:34:50.382Z,32.60
2018-12-16T10:37:18.250Z,31.07
2018-12-16T10:39:46.126Z,30.20
2018-12-16T10:42:15.168Z,29.93
2018-12-16T10:44:43.009Z,32.57
2018-12-16T10:50:28.736Z,29.63
2018-12-16T10:56:10.797Z,27.60
2018-12-16T10:58:39.051Z,28.03
2018-12-16T11:01:12.342Z,29.73
2018-12-16T11:03:42.332Z,28.97
2018-12-16T11:06:10.740Z,27.50
2018-12-16T11:08:40.392Z,29.07
2018-12-16T11:11:08.405Z,28.93
2018-12-16T11:16:50.484Z,31.13
2018-12-16T11:19:46.102Z,28.10
2018-12-16T11:22:14.050Z,29.50
2018-12-16T11:25:05.451Z,30.73
2018-12-16T11:27:28.592Z,31.40
2018-12-16T11:30:01.805Z,30.67
2018-12-16T11:32:29.958Z,28.70
2018-12-16T11:35:01.596Z,29.77
2018-12-16T11:37:29.915Z,29.10
2018-12-16T11:39:57.765Z,28.60
2018-12-16T11:42:28.028Z,35.67
2018-12-16T11:44:56.162Z,33.73
2018-12-16T11:47:26.463Z,32.93
2018-12-16T11:49:54.515Z,32.23
2018-12-16T11:52:25.642Z,30.57
2018-12-16T11:54:53.723Z,36.73
2018-12-16T11:57:22.807Z,30.73
2018-12-16T11:59:50.671Z,31.83
2018-12-16T12:02:22.455Z,30.53
2018-12-16T12:04:50.282Z,28.60
2018-12-16T12:07:28.610Z,36.10
2018-12-16T12:09:56.528Z,30.40
2018-12-16T12:12:29.484Z,31.50
2018-12-16T12:14:57.378Z,33.60
2018-12-16T12:17:27.470Z,29.97
2018-12-16T12:19:55.362Z,30.97
2018-12-16T12:22:28.300Z,31.20
2018-12-16T12:24:56.188Z,35.23
2018-12-16T12:27:28.154Z,31.97
2018-12-16T12:29:56.012Z,34.80
2018-12-16T12:32:29.020Z,33.57
2018-12-16T12:34:57.080Z,29.70
2018-12-16T12:37:27.213Z,33.53
2018-12-16T12:40:05.526Z,45.03
2018-12-16T12:42:33.378Z,38.37
2018-12-16T12:45:06.827Z,35.10
2018-12-16T12:47:34.660Z,44.83
2018-12-16T12:50:05.535Z,35.37
2018-12-16T12:52:33.351Z,35.17
2018-12-16T12:55:01.496Z,31.77
2018-12-16T12:57:29.566Z,34.90
2018-12-16T13:00:01.967Z,35.90
2018-12-16T13:02:30.008Z,31.27
2018-12-16T13:05:24.649Z,36.00
2018-12-16T13:07:52.574Z,37.53
2018-12-16T13:10:25.971Z,31.97
2018-12-16T13:12:54.027Z,32.13
2018-12-16T13:15:24.137Z,32.23
2018-12-16T13:17:52.000Z,34.20
2018-12-16T13:20:20.730Z,32.07
2018-12-16T13:22:48.979Z,31.40
2018-12-16T13:25:26.495Z,29.77
2018-12-16T13:27:54.829Z,32.10
2018-12-16T13:30:25.094Z,29.73
2018-12-16T13:32:53.131Z,32.83
2018-12-16T13:35:28.669Z,30.67
2018-12-16T13:37:56.469Z,32.33
2018-12-16T13:40:25.082Z,29.97
2018-12-16T13:42:59.122Z,30.23
2018-12-16T13:45:27.206Z,31.73
2018-12-16T13:47:57.257Z,29.90
2018-12-16T13:50:25.191Z,32.13
2018-12-16T13:52:54.235Z,34.00
2018-12-16T13:55:22.082Z,32.27
2018-12-16T13:57:51.425Z,31.43
2018-12-16T14:00:20.941Z,32.40
2018-12-16T14:02:53.857Z,36.83
2018-12-16T14:05:21.858Z,32.83
2018-12-16T14:07:52.138Z,34.77
2018-12-16T14:10:20.007Z,28.50
2018-12-16T14:12:57.834Z,27.40
2018-12-16T14:15:25.759Z,28.40
2018-12-16T14:18:03.864Z,30.33
2018-12-16T14:20:31.946Z,34.80
2018-12-16T14:23:05.829Z,29.33
2018-12-16T14:25:33.804Z,30.83
2018-12-16T14:28:03.931Z,35.03
2018-12-16T14:30:31.787Z,26.30
2018-12-16T14:32:59.799Z,28.87
2018-12-16T14:35:27.960Z,28.73
2018-12-16T14:37:57.255Z,26.73
2018-12-16T14:43:55.789Z,26.20
2018-12-16T14:46:23.914Z,28.10
2018-12-16T14:52:44.571Z,30.03
2018-12-16T14:55:12.452Z,26.57
2018-12-16T14:57:42.520Z,28.87
2018-12-16T15:00:10.856Z,26.40
2018-12-16T15:02:39.973Z,28.73
2018-12-16T15:05:08.337Z,30.20
2018-12-16T15:11:02.197Z,27.50
2018-12-16T15:13:30.240Z,27.90
2018-12-16T15:16:37.973Z,29.33
2018-12-16T15:19:05.879Z,27.97
2018-12-16T15:21:35.181Z,27.40
2018-12-16T15:24:03.253Z,30.63
2018-12-16T15:26:37.284Z,29.47
2018-12-16T15:29:05.151Z,28.30
2018-12-16T15:31:37.081Z,27.07
2018-12-16T15:34:05.021Z,30.87
2018-12-16T15:36:35.031Z,34.17
2018-12-16T15:39:03.909Z,36.57
2018-12-16T15:41:31.838Z,34.37
2018-12-16T15:43:59.916Z,31.50
2018-12-16T15:46:27.806Z,29.50
2018-12-16T15:48:58.108Z,29.00
2018-12-16T15:51:25.965Z,31.00
2018-12-16T15:53:58.905Z,36.00
2018-12-16T15:56:26.846Z,52.00
2018-12-16T15:58:55.899Z,36.87
2018-12-16T16:01:23.730Z,34.33
2018-12-16T16:03:56.950Z,33.87
2018-12-16T16:06:25.019Z,38.77
2018-12-16T16:08:55.147Z,37.03
2018-12-16T16:11:22.972Z,35.47
2018-12-16T16:14:08.229Z,44.03
2018-12-16T16:16:36.046Z,39.07
2018-12-16T16:19:05.086Z,54.03
2018-12-16T16:21:33.117Z,38.73
2018-12-16T16:24:00.961Z,50.35
2018-12-16T16:26:28.874Z,40.13
2018-12-16T16:28:58.968Z,39.83
2018-12-16T16:31:27.078Z,37.07
2018-12-16T16:33:56.203Z,35.70
2018-12-16T16:36:24.394Z,37.97
2018-12-16T16:39:07.007Z,43.07
2018-12-16T16:41:39.213Z,42.47
2018-12-16T16:44:07.051Z,45.12
2018-12-16T16:46:43.109Z,43.03
2018-12-16T16:49:10.967Z,36.47
2018-12-16T16:51:38.870Z,39.27
2018-12-16T16:54:08.348Z,42.47
2018-12-16T16:56:41.949Z,37.30
2018-12-16T16:59:09.988Z,37.03
2018-12-16T17:01:39.030Z,38.93
2018-12-16T17:04:06.963Z,53.70
2018-12-16T17:06:40.977Z,43.57
2018-12-16T17:09:08.835Z,39.77
2018-12-16T17:11:37.975Z,38.23
2018-12-16T17:14:06.069Z,54.33
2018-12-16T17:16:38.372Z,44.27
2018-12-16T17:19:07.110Z,42.10
2018-12-16T17:21:44.192Z,39.83
2018-12-16T17:24:12.221Z,37.27
2018-12-16T17:26:41.513Z,41.10
2018-12-16T17:29:09.606Z,40.27
2018-12-16T17:31:38.638Z,42.07
2018-12-16T17:34:06.569Z,39.87
2018-12-16T17:36:34.702Z,40.90
2018-12-16T17:39:03.204Z,41.53
2018-12-16T17:41:31.147Z,41.27
2018-12-16T17:44:16.794Z,43.03
2018-12-16T17:46:44.958Z,39.27
2018-12-16T17:49:12.825Z,37.10
2018-12-16T17:51:41.072Z,38.50
2018-12-16T17:54:33.325Z,34.47
2018-12-16T17:57:01.157Z,34.30
2018-12-16T17:59:40.308Z,33.50
2018-12-16T18:02:08.160Z,37.05
2018-12-16T18:04:39.902Z,34.27
2018-12-16T18:07:07.835Z,35.60
2018-12-16T18:09:38.580Z,36.27
2018-12-16T18:12:07.015Z,36.57
2018-12-16T18:14:40.641Z,35.53
2018-12-16T18:17:10.041Z,35.50
2018-12-16T18:19:44.459Z,35.10
2018-12-16T18:22:14.154Z,36.90
2018-12-16T18:24:43.980Z,37.07
2018-12-16T18:27:12.491Z,36.30
2018-12-16T18:29:49.639Z,36.80
2018-12-16T18:32:18.245Z,34.30
2018-12-16T18:34:56.654Z,35.60
2018-12-16T18:37:26.488Z,33.47
2018-12-16T18:39:55.313Z,37.90
2018-12-16T18:42:31.515Z,36.47
2018-12-16T18:45:00.251Z,38.73
2018-12-16T18:47:37.062Z,34.97
2018-12-16T18:50:06.459Z,40.07
2018-12-16T18:52:37.319Z,37.50
2018-12-16T18:55:06.240Z,35.67
2018-12-16T18:57:35.909Z,31.37
2018-12-16T19:00:05.707Z,30.30
2018-12-16T19:02:34.491Z,32.47
2018-12-16T19:05:03.378Z,32.53
2018-12-16T19:07:39.919Z,32.37
2018-12-16T19:10:08.460Z,33.87
2018-12-16T19:12:43.771Z,32.93
2018-12-16T19:15:12.137Z,26.63
2018-12-16T19:17:43.358Z,30.57
2018-12-16T19:20:11.174Z,34.10
2018-12-16T19:22:47.237Z,36.20
2018-12-16T19:25:15.053Z,34.60
2018-12-16T19:27:45.441Z,35.87
2018-12-16T19:30:13.563Z,34.13
2018-12-16T19:32:43.686Z,29.80
2018-12-16T19:35:12.412Z,29.83
2018-12-16T19:37:53.543Z,33.07
2018-12-16T19:40:21.609Z,28.30
2018-12-16T19:42:49.928Z,32.50
2018-12-16T19:45:17.791Z,33.20
2018-12-16T19:47:49.563Z,32.83
2018-12-16T19:50:26.951Z,29.90
2018-12-16T19:52:54.772Z,26.93
2018-12-16T19:55:24.546Z,28.83
2018-12-16T19:57:52.430Z,30.60
2018-12-16T20:00:24.772Z,28.73
2018-12-16T20:02:52.618Z,29.00
2018-12-16T20:05:20.713Z,33.43
2018-12-16T20:07:49.433Z,35.40
2018-12-16T20:10:24.284Z,37.20
2018-12-16T20:12:52.106Z,31.30
2018-12-16T20:15:27.773Z,30.37
2018-12-16T20:17:55.817Z,32.57
2018-12-16T20:20:23.896Z,32.30
2018-12-16T20:22:51.772Z,28.80
2018-12-16T20:25:21.865Z,26.50
2018-12-16T20:27:50.176Z,30.87
2018-12-16T20:30:26.609Z,26.17
2018-12-16T20:32:54.717Z,25.77
2018-12-16T20:35:24.093Z,26.37
2018-12-16T20:37:52.718Z,23.67
2018-12-16T20:40:21.770Z,24.83
2018-12-16T20:42:52.309Z,23.83
2018-12-16T20:45:20.150Z,22.60
2018-12-16T20:47:52.927Z,22.40
2018-12-16T20:50:20.809Z,21.63
2018-12-16T20:52:49.847Z,22.97
2018-12-16T20:55:17.741Z,21.67
2018-12-16T20:57:49.746Z,21.57
2018-12-16T21:00:18.842Z,20.73
2018-12-16T21:02:51.803Z,24.80
2018-12-16T21:05:19.647Z,25.83
2018-12-16T21:07:50.816Z,24.27
2018-12-16T21:10:18.666Z,24.87
2018-12-16T21:12:54.336Z,24.77
2018-12-16T21:15:27.827Z,24.23
2018-12-16T21:18:01.382Z,23.13
2018-12-16T21:20:29.828Z,25.47
2018-12-16T21:22:59.852Z,25.30
2018-12-16T21:25:27.975Z,27.87
2018-12-16T21:28:01.509Z,27.10
2018-12-16T21:30:29.322Z,30.43
2018-12-16T21:33:02.642Z,35.57
2018-12-16T21:35:30.624Z,32.83
2018-12-16T21:38:00.827Z,35.03
2018-12-16T21:40:28.800Z,40.83
2018-12-16T21:42:56.757Z,44.73
2018-12-16T21:45:24.830Z,42.57
2018-12-16T21:47:52.664Z,47.10
2018-12-16T21:50:24.463Z,49.70
2018-12-16T21:52:52.311Z,42.10
2018-12-16T21:55:20.379Z,46.57
2018-12-16T21:57:48.192Z,42.07
2018-12-16T22:00:17.168Z,41.73
2018-12-16T22:02:44.968Z,44.33
2018-12-16T22:05:32.852Z,47.93
2018-12-16T22:08:00.785Z,45.63
2018-12-16T22:10:29.891Z,47.13
2018-12-16T22:12:57.807Z,42.53
2018-12-16T22:15:27.350Z,46.60
2018-12-16T22:17:55.363Z,47.63
2018-12-16T22:20:23.791Z,53.77
2018-12-16T22:22:52.305Z,46.43
2018-12-16T22:25:20.368Z,42.70
2018-12-16T22:27:48.445Z,46.27
2018-12-16T22:30:16.465Z,43.20
2018-12-16T22:32:44.641Z,40.43
2018-12-16T22:35:30.867Z,44.33
2018-12-16T22:37:58.742Z,46.50
2018-12-16T22:40:28.264Z,44.13
2018-12-16T22:42:58.475Z,35.13
2018-12-16T22:45:26.442Z,46.10
2018-12-16T22:47:54.534Z,45.30
2018-12-16T22:50:22.342Z,49.30
2018-12-16T22:52:53.930Z,49.10
2018-12-16T22:55:21.753Z,50.00
2018-12-16T22:57:49.641Z,41.53
2018-12-16T23:00:17.919Z,44.50
2018-12-16T23:02:46.997Z,43.27
2018-12-16T23:05:14.910Z,49.03
2018-12-16T23:07:50.513Z,50.10
2018-12-16T23:10:18.601Z,47.80
2018-12-16T23:12:55.668Z,48.10
2018-12-16T23:15:23.731Z,52.53
2018-12-16T23:17:52.840Z,48.10
2018-12-16T23:20:22.785Z,41.83
2018-12-16T23:22:50.615Z,34.80
2018-12-16T23:25:19.722Z,34.23
2018-12-16T23:27:54.019Z,31.83
2018-12-16T23:30:17.632Z,33.10
2018-12-16T23:32:47.002Z,29.77
2018-12-16T23:35:14.868Z,33.50
2018-12-16T23:37:47.843Z,30.97
2018-12-16T23:40:15.697Z,32.37
2018-12-16T23:42:43.967Z,30.53
2018-12-16T23:45:14.107Z,31.33
2018-12-16T23:47:41.976Z,33.00
2018-12-16T23:50:10.039Z,31.63
2018-12-16T23:52:37.847Z,30.33
2018-12-16T23:55:05.871Z,34.33
2018-12-16T23:57:34.054Z,31.53
